sensor_id;sensor_type;location;lat;lon;timestamp;temperature;humidity
2327;DHT22;1174;51.588;7.328;2023-01-04T00:00:22;8.70;99.90
2327;DHT22;1174;51.588;7.328;2023-01-04T00:02:49;8.60;99.90
2327;DHT22;1174;51.588;7.328;2023-01-04T00:05:18;8.60;99.90
2327;DHT22;1174;51.588;7.328;2023-01-04T00:07:45;8.60;99.90
2327;DHT22;1174;51.588;7.328;2023-01-04T00:10:12;8.50;99.90
2327;DHT22;1174;51.588;7.328;2023-01-04T00:12:39;8.50;99.90
2327;DHT22;1174;51.588;7.328;2023-01-04T00:15:07;8.50;99.90
2327;DHT22;1174;51.588;7.328;2023-01-04T00:17:34;8.50;99.90
2327;DHT22;1174;51.588;7.328;2023-01-04T00:20:01;8.50;99.90
2327;DHT22;1174;51.588;7.328;2023-01-04T00:22:32;8.50;99.90
2327;DHT22;1174;51.588;7.328;2023-01-04T00:24:59;8.50;99.90
2327;DHT22;1174;51.588;7.328;2023-01-04T00:27:26;8.60;99.90
2327;DHT22;1174;51.588;7.328;2023-01-04T00:29:53;8.60;99.90
2327;DHT22;1174;51.588;7.328;2023-01-04T00:32:20;8.60;99.90
2327;DHT22;1174;51.588;7.328;2023-01-04T00:34:49;8.60;99.90
2327;DHT22;1174;51.588;7.328;2023-01-04T00:37:16;8.60;99.90
2327;DHT22;1174;51.588;7.328;2023-01-04T00:39:45;8.80;99.90
2327;DHT22;1174;51.588;7.328;2023-01-04T00:42:12;8.80;99.90
2327;DHT22;1174;51.588;7.328;2023-01-04T00:44:39;8.90;99.90
2327;DHT22;1174;51.588;7.328;2023-01-04T00:47:09;8.80;99.90
2327;DHT22;1174;51.588;7.328;2023-01-04T00:49:36;8.90;99.90
2327;DHT22;1174;51.588;7.328;2023-01-04T00:52:03;8.90;99.90
2327;DHT22;1174;51.588;7.328;2023-01-04T00:54:31;8.90;99.90
2327;DHT22;1174;51.588;7.328;2023-01-04T00:56:59;8.90;99.90
2327;DHT22;1174;51.588;7.328;2023-01-04T00:59:26;8.90;99.90
2327;DHT22;1174;51.588;7.328;2023-01-04T01:01:53;9.00;99.90
2327;DHT22;1174;51.588;7.328;2023-01-04T01:04:22;9.00;99.90
2327;DHT22;1174;51.588;7.328;2023-01-04T01:06:51;9.00;99.90
2327;DHT22;1174;51.588;7.328;2023-01-04T01:09:18;9.00;99.90
2327;DHT22;1174;51.588;7.328;2023-01-04T01:11:47;9.10;99.90
2327;DHT22;1174;51.588;7.328;2023-01-04T01:14:18;9.00;99.90
2327;DHT22;1174;51.588;7.328;2023-01-04T01:16:45;9.00;99.90
2327;DHT22;1174;51.588;7.328;2023-01-04T01:19:13;9.00;99.90
2327;DHT22;1174;51.588;7.328;2023-01-04T01:21:40;9.00;99.90
2327;DHT22;1174;51.588;7.328;2023-01-04T01:24:08;8.90;99.90
2327;DHT22;1174;51.588;7.328;2023-01-04T01:26:38;9.00;99.90
2327;DHT22;1174;51.588;7.328;2023-01-04T01:29:07;8.90;99.90
2327;DHT22;1174;51.588;7.328;2023-01-04T01:31:37;8.90;99.90
2327;DHT22;1174;51.588;7.328;2023-01-04T01:34:06;8.70;99.90
2327;DHT22;1174;51.588;7.328;2023-01-04T01:36:33;8.70;99.90
2327;DHT22;1174;51.588;7.328;2023-01-04T01:39:00;8.70;99.90
2327;DHT22;1174;51.588;7.328;2023-01-04T01:41:30;8.60;99.90
2327;DHT22;1174;51.588;7.328;2023-01-04T01:43:59;8.50;99.90
2327;DHT22;1174;51.588;7.328;2023-01-04T01:46:29;8.50;99.90
2327;DHT22;1174;51.588;7.328;2023-01-04T01:49:04;8.50;99.90
2327;DHT22;1174;51.588;7.328;2023-01-04T01:51:32;8.40;99.90
2327;DHT22;1174;51.588;7.328;2023-01-04T01:54:03;8.40;99.90
2327;DHT22;1174;51.588;7.328;2023-01-04T01:56:33;8.40;99.90
2327;DHT22;1174;51.588;7.328;2023-01-04T01:59:04;8.40;99.90
2327;DHT22;1174;51.588;7.328;2023-01-04T02:01:32;8.40;99.90
2327;DHT22;1174;51.588;7.328;2023-01-04T02:04:03;8.40;99.90
2327;DHT22;1174;51.588;7.328;2023-01-04T02:06:34;8.40;99.90
2327;DHT22;1174;51.588;7.328;2023-01-04T02:09:02;8.40;99.90
2327;DHT22;1174;51.588;7.328;2023-01-04T02:11:31;8.40;99.90
2327;DHT22;1174;51.588;7.328;2023-01-04T02:14:02;8.50;99.90
2327;DHT22;1174;51.588;7.328;2023-01-04T02:16:58;8.40;99.90
2327;DHT22;1174;51.588;7.328;2023-01-04T02:26:11;8.50;99.90
2327;DHT22;1174;51.588;7.328;2023-01-04T02:28:55;8.50;99.90
2327;DHT22;1174;51.588;7.328;2023-01-04T02:31:31;8.40;99.90
2327;DHT22;1174;51.588;7.328;2023-01-04T02:34:08;8.40;99.90
2327;DHT22;1174;51.588;7.328;2023-01-04T02:36:46;8.40;99.90
2327;DHT22;1174;51.588;7.328;2023-01-04T02:39:21;8.30;99.90
2327;DHT22;1174;51.588;7.328;2023-01-04T02:41:57;8.30;99.90
2327;DHT22;1174;51.588;7.328;2023-01-04T02:44:36;8.30;99.90
2327;DHT22;1174;51.588;7.328;2023-01-04T02:47:26;8.30;99.90
2327;DHT22;1174;51.588;7.328;2023-01-04T02:50:21;8.20;99.90
2327;DHT22;1174;51.588;7.328;2023-01-04T02:52:59;8.20;99.90
2327;DHT22;1174;51.588;7.328;2023-01-04T02:55:41;8.10;99.90
2327;DHT22;1174;51.588;7.328;2023-01-04T02:58:25;8.10;99.90
2327;DHT22;1174;51.588;7.328;2023-01-04T03:01:02;8.10;99.90
2327;DHT22;1174;51.588;7.328;2023-01-04T03:04:01;8.10;99.90
2327;DHT22;1174;51.588;7.328;2023-01-04T03:06:51;8.10;99.90
2327;DHT22;1174;51.588;7.328;2023-01-04T03:09:28;8.10;99.90
2327;DHT22;1174;51.588;7.328;2023-01-04T03:12:01;8.20;99.90
2327;DHT22;1174;51.588;7.328;2023-01-04T03:14:50;8.20;99.90
2327;DHT22;1174;51.588;7.328;2023-01-04T03:17:20;8.30;99.90
2327;DHT22;1174;51.588;7.328;2023-01-04T03:19:52;8.30;99.90
2327;DHT22;1174;51.588;7.328;2023-01-04T03:22:26;8.30;99.90
2327;DHT22;1174;51.588;7.328;2023-01-04T03:25:17;8.30;99.90
2327;DHT22;1174;51.588;7.328;2023-01-04T03:28:03;8.40;99.90
2327;DHT22;1174;51.588;7.328;2023-01-04T03:30:53;8.40;99.90
2327;DHT22;1174;51.588;7.328;2023-01-04T03:33:40;8.40;99.90
2327;DHT22;1174;51.588;7.328;2023-01-04T03:36:32;8.40;99.90
2327;DHT22;1174;51.588;7.328;2023-01-04T03:39:09;8.50;99.90
2327;DHT22;1174;51.588;7.328;2023-01-04T03:41:59;8.50;99.90
2327;DHT22;1174;51.588;7.328;2023-01-04T03:44:51;8.60;99.90
2327;DHT22;1174;51.588;7.328;2023-01-04T03:47:44;8.60;99.90
2327;DHT22;1174;51.588;7.328;2023-01-04T03:50:35;8.70;99.90
2327;DHT22;1174;51.588;7.328;2023-01-04T03:53:05;8.70;99.90
2327;DHT22;1174;51.588;7.328;2023-01-04T03:55:34;8.70;99.90
2327;DHT22;1174;51.588;7.328;2023-01-04T03:58:02;8.80;99.90
2327;DHT22;1174;51.588;7.328;2023-01-04T04:00:30;8.80;99.90
2327;DHT22;1174;51.588;7.328;2023-01-04T04:02:57;8.80;99.90
2327;DHT22;1174;51.588;7.328;2023-01-04T04:05:33;8.90;99.90
2327;DHT22;1174;51.588;7.328;2023-01-04T04:08:20;9.00;99.90
2327;DHT22;1174;51.588;7.328;2023-01-04T04:10:53;9.00;99.90
2327;DHT22;1174;51.588;7.328;2023-01-04T04:13:20;9.00;99.90
2327;DHT22;1174;51.588;7.328;2023-01-04T04:15:47;9.00;99.90
2327;DHT22;1174;51.588;7.328;2023-01-04T04:18:14;9.00;99.90
2327;DHT22;1174;51.588;7.328;2023-01-04T04:20:41;9.00;99.90
2327;DHT22;1174;51.588;7.328;2023-01-04T04:23:08;9.00;99.90
2327;DHT22;1174;51.588;7.328;2023-01-04T04:25:37;8.90;99.90
2327;DHT22;1174;51.588;7.328;2023-01-04T04:28:04;8.90;99.90
2327;DHT22;1174;51.588;7.328;2023-01-04T04:30:31;9.00;99.90
2327;DHT22;1174;51.588;7.328;2023-01-04T04:32:58;8.90;99.90
2327;DHT22;1174;51.588;7.328;2023-01-04T04:35:25;8.90;99.90
2327;DHT22;1174;51.588;7.328;2023-01-04T04:37:55;9.00;99.90
2327;DHT22;1174;51.588;7.328;2023-01-04T04:40:22;9.00;99.90
2327;DHT22;1174;51.588;7.328;2023-01-04T04:43:10;9.00;99.90
2327;DHT22;1174;51.588;7.328;2023-01-04T04:45:37;8.90;99.90
2327;DHT22;1174;51.588;7.328;2023-01-04T04:48:05;9.00;99.90
2327;DHT22;1174;51.588;7.328;2023-01-04T04:50:32;8.90;99.90
2327;DHT22;1174;51.588;7.328;2023-01-04T04:53:01;9.00;99.90
2327;DHT22;1174;51.588;7.328;2023-01-04T04:55:28;9.00;99.90
2327;DHT22;1174;51.588;7.328;2023-01-04T04:57:55;9.00;99.90
2327;DHT22;1174;51.588;7.328;2023-01-04T05:00:24;9.00;99.90
2327;DHT22;1174;51.588;7.328;2023-01-04T05:02:52;9.00;99.90
2327;DHT22;1174;51.588;7.328;2023-01-04T05:05:19;9.10;99.90
2327;DHT22;1174;51.588;7.328;2023-01-04T05:07:46;9.10;99.90
2327;DHT22;1174;51.588;7.328;2023-01-04T05:10:13;9.10;99.90
2327;DHT22;1174;51.588;7.328;2023-01-04T05:12:40;9.20;99.90
2327;DHT22;1174;51.588;7.328;2023-01-04T05:15:26;9.10;99.90
2327;DHT22;1174;51.588;7.328;2023-01-04T05:17:53;9.10;99.90
2327;DHT22;1174;51.588;7.328;2023-01-04T05:20:21;9.20;99.90
2327;DHT22;1174;51.588;7.328;2023-01-04T05:22:50;9.20;99.90
2327;DHT22;1174;51.588;7.328;2023-01-04T05:25:18;9.10;99.90
2327;DHT22;1174;51.588;7.328;2023-01-04T05:27:48;9.20;99.90
2327;DHT22;1174;51.588;7.328;2023-01-04T05:30:16;9.30;99.90
2327;DHT22;1174;51.588;7.328;2023-01-04T05:33:03;9.20;99.90
2327;DHT22;1174;51.588;7.328;2023-01-04T05:35:30;9.30;99.90
2327;DHT22;1174;51.588;7.328;2023-01-04T05:37:59;9.30;99.90
2327;DHT22;1174;51.588;7.328;2023-01-04T05:40:26;9.30;99.90
2327;DHT22;1174;51.588;7.328;2023-01-04T05:42:53;9.30;99.90
2327;DHT22;1174;51.588;7.328;2023-01-04T05:45:20;9.30;99.90
2327;DHT22;1174;51.588;7.328;2023-01-04T05:47:48;9.30;99.90
2327;DHT22;1174;51.588;7.328;2023-01-04T05:50:18;9.30;99.90
2327;DHT22;1174;51.588;7.328;2023-01-04T05:52:45;9.40;99.90
2327;DHT22;1174;51.588;7.328;2023-01-04T05:55:12;9.40;99.90
2327;DHT22;1174;51.588;7.328;2023-01-04T05:57:39;9.50;99.90
2327;DHT22;1174;51.588;7.328;2023-01-04T06:00:09;9.50;99.90
2327;DHT22;1174;51.588;7.328;2023-01-04T06:02:36;9.60;99.90
2327;DHT22;1174;51.588;7.328;2023-01-04T06:05:04;9.60;99.90
2327;DHT22;1174;51.588;7.328;2023-01-04T06:07:32;9.60;99.90
2327;DHT22;1174;51.588;7.328;2023-01-04T06:09:59;9.70;99.90
2327;DHT22;1174;51.588;7.328;2023-01-04T06:12:27;9.80;99.90
2327;DHT22;1174;51.588;7.328;2023-01-04T06:14:53;9.80;99.90
2327;DHT22;1174;51.588;7.328;2023-01-04T06:17:20;9.80;99.90
2327;DHT22;1174;51.588;7.328;2023-01-04T06:19:47;9.90;99.90
2327;DHT22;1174;51.588;7.328;2023-01-04T06:22:15;9.80;99.90
2327;DHT22;1174;51.588;7.328;2023-01-04T06:24:43;9.80;99.90
2327;DHT22;1174;51.588;7.328;2023-01-04T06:27:11;9.80;99.90
2327;DHT22;1174;51.588;7.328;2023-01-04T06:29:38;9.90;99.90
2327;DHT22;1174;51.588;7.328;2023-01-04T06:32:05;10.00;99.90
2327;DHT22;1174;51.588;7.328;2023-01-04T06:34:34;10.10;99.90
2327;DHT22;1174;51.588;7.328;2023-01-04T06:37:02;10.10;99.90
2327;DHT22;1174;51.588;7.328;2023-01-04T06:39:31;10.10;99.90
2327;DHT22;1174;51.588;7.328;2023-01-04T06:42:02;10.10;99.90
2327;DHT22;1174;51.588;7.328;2023-01-04T06:44:51;10.10;99.90
2327;DHT22;1174;51.588;7.328;2023-01-04T06:47:18;10.10;99.90
2327;DHT22;1174;51.588;7.328;2023-01-04T06:49:45;10.10;99.90
2327;DHT22;1174;51.588;7.328;2023-01-04T06:52:12;10.20;99.90
2327;DHT22;1174;51.588;7.328;2023-01-04T06:54:39;10.30;99.90
2327;DHT22;1174;51.588;7.328;2023-01-04T06:57:07;10.20;99.90
2327;DHT22;1174;51.588;7.328;2023-01-04T06:59:34;10.10;99.90
2327;DHT22;1174;51.588;7.328;2023-01-04T07:02:01;10.10;99.90
2327;DHT22;1174;51.588;7.328;2023-01-04T07:04:28;10.10;99.90
2327;DHT22;1174;51.588;7.328;2023-01-04T07:06:54;10.10;99.90
2327;DHT22;1174;51.588;7.328;2023-01-04T07:09:24;10.20;99.90
2327;DHT22;1174;51.588;7.328;2023-01-04T07:11:51;10.20;99.90
2327;DHT22;1174;51.588;7.328;2023-01-04T07:14:24;10.20;99.90
2327;DHT22;1174;51.588;7.328;2023-01-04T07:16:51;10.20;99.90
2327;DHT22;1174;51.588;7.328;2023-01-04T07:19:18;10.20;99.90
2327;DHT22;1174;51.588;7.328;2023-01-04T07:21:48;10.20;99.90
2327;DHT22;1174;51.588;7.328;2023-01-04T07:24:15;10.30;99.90
2327;DHT22;1174;51.588;7.328;2023-01-04T07:26:42;10.30;99.90
2327;DHT22;1174;51.588;7.328;2023-01-04T07:29:11;10.30;99.90
2327;DHT22;1174;51.588;7.328;2023-01-04T07:31:44;10.40;99.90
2327;DHT22;1174;51.588;7.328;2023-01-04T07:34:12;10.50;99.90
2327;DHT22;1174;51.588;7.328;2023-01-04T07:36:39;10.50;99.90
2327;DHT22;1174;51.588;7.328;2023-01-04T07:39:07;10.60;99.90
2327;DHT22;1174;51.588;7.328;2023-01-04T07:41:38;10.50;99.90
2327;DHT22;1174;51.588;7.328;2023-01-04T07:44:07;10.50;99.90
2327;DHT22;1174;51.588;7.328;2023-01-04T07:46:35;10.50;99.90
2327;DHT22;1174;51.588;7.328;2023-01-04T07:49:03;10.50;99.90
2327;DHT22;1174;51.588;7.328;2023-01-04T07:51:31;10.50;99.90
2327;DHT22;1174;51.588;7.328;2023-01-04T07:54:01;10.50;99.90
2327;DHT22;1174;51.588;7.328;2023-01-04T07:56:28;10.50;99.90
2327;DHT22;1174;51.588;7.328;2023-01-04T07:58:56;10.40;99.90
2327;DHT22;1174;51.588;7.328;2023-01-04T08:01:25;10.40;99.90
2327;DHT22;1174;51.588;7.328;2023-01-04T08:03:55;10.40;99.90
2327;DHT22;1174;51.588;7.328;2023-01-04T08:06:24;10.30;99.90
2327;DHT22;1174;51.588;7.328;2023-01-04T08:08:51;10.30;99.90
2327;DHT22;1174;51.588;7.328;2023-01-04T08:11:19;10.40;99.90
2327;DHT22;1174;51.588;7.328;2023-01-04T08:13:47;10.40;99.90
2327;DHT22;1174;51.588;7.328;2023-01-04T08:16:19;10.40;99.90
2327;DHT22;1174;51.588;7.328;2023-01-04T08:18:51;10.50;99.90
2327;DHT22;1174;51.588;7.328;2023-01-04T08:21:19;10.50;99.90
2327;DHT22;1174;51.588;7.328;2023-01-04T08:23:47;10.60;99.90
2327;DHT22;1174;51.588;7.328;2023-01-04T08:26:15;10.70;99.90
2327;DHT22;1174;51.588;7.328;2023-01-04T08:28:43;10.80;99.90
2327;DHT22;1174;51.588;7.328;2023-01-04T08:31:12;10.80;99.90
2327;DHT22;1174;51.588;7.328;2023-01-04T08:33:41;10.90;99.90
2327;DHT22;1174;51.588;7.328;2023-01-04T08:36:10;10.90;99.90
2327;DHT22;1174;51.588;7.328;2023-01-04T08:38:38;11.00;99.90
2327;DHT22;1174;51.588;7.328;2023-01-04T08:41:06;11.00;99.90
2327;DHT22;1174;51.588;7.328;2023-01-04T08:43:34;11.00;99.90
2327;DHT22;1174;51.588;7.328;2023-01-04T08:46:01;11.10;99.90
2327;DHT22;1174;51.588;7.328;2023-01-04T08:48:29;11.10;99.90
2327;DHT22;1174;51.588;7.328;2023-01-04T08:51:01;11.10;99.90
2327;DHT22;1174;51.588;7.328;2023-01-04T08:53:28;11.20;99.90
2327;DHT22;1174;51.588;7.328;2023-01-04T08:55:55;11.20;99.90
2327;DHT22;1174;51.588;7.328;2023-01-04T08:58:26;11.30;99.90
2327;DHT22;1174;51.588;7.328;2023-01-04T09:00:58;11.30;99.90
2327;DHT22;1174;51.588;7.328;2023-01-04T09:03:26;11.40;99.90
2327;DHT22;1174;51.588;7.328;2023-01-04T09:05:54;11.40;99.90
2327;DHT22;1174;51.588;7.328;2023-01-04T09:08:27;11.40;99.90
2327;DHT22;1174;51.588;7.328;2023-01-04T09:10:55;11.50;99.90
2327;DHT22;1174;51.588;7.328;2023-01-04T09:13:22;11.60;99.90
2327;DHT22;1174;51.588;7.328;2023-01-04T09:15:50;11.70;99.90
2327;DHT22;1174;51.588;7.328;2023-01-04T09:18:18;11.70;99.90
2327;DHT22;1174;51.588;7.328;2023-01-04T09:20:45;11.60;99.90
2327;DHT22;1174;51.588;7.328;2023-01-04T09:23:12;11.60;99.90
2327;DHT22;1174;51.588;7.328;2023-01-04T09:25:39;11.60;99.90
2327;DHT22;1174;51.588;7.328;2023-01-04T09:28:07;11.50;99.90
2327;DHT22;1174;51.588;7.328;2023-01-04T09:30:35;11.50;99.90
2327;DHT22;1174;51.588;7.328;2023-01-04T09:33:03;11.50;99.90
2327;DHT22;1174;51.588;7.328;2023-01-04T09:35:31;11.60;99.90
2327;DHT22;1174;51.588;7.328;2023-01-04T09:37:58;11.60;99.90
2327;DHT22;1174;51.588;7.328;2023-01-04T09:40:31;11.50;99.90
2327;DHT22;1174;51.588;7.328;2023-01-04T09:43:02;11.50;99.90
2327;DHT22;1174;51.588;7.328;2023-01-04T09:45:30;11.40;99.90
2327;DHT22;1174;51.588;7.328;2023-01-04T09:48:05;11.40;99.90
2327;DHT22;1174;51.588;7.328;2023-01-04T09:50:36;11.40;99.90
2327;DHT22;1174;51.588;7.328;2023-01-04T09:53:11;11.40;99.90
2327;DHT22;1174;51.588;7.328;2023-01-04T09:55:44;11.40;99.90
2327;DHT22;1174;51.588;7.328;2023-01-04T09:58:23;11.40;99.90
2327;DHT22;1174;51.588;7.328;2023-01-04T10:00:58;11.40;99.90
2327;DHT22;1174;51.588;7.328;2023-01-04T10:03:31;11.50;99.90
2327;DHT22;1174;51.588;7.328;2023-01-04T10:06:00;11.50;99.90
2327;DHT22;1174;51.588;7.328;2023-01-04T10:08:27;11.60;99.90
2327;DHT22;1174;51.588;7.328;2023-01-04T10:11:14;11.60;99.90
2327;DHT22;1174;51.588;7.328;2023-01-04T10:13:51;11.60;99.90
2327;DHT22;1174;51.588;7.328;2023-01-04T10:16:41;11.50;99.90
2327;DHT22;1174;51.588;7.328;2023-01-04T10:19:26;11.50;99.90
2327;DHT22;1174;51.588;7.328;2023-01-04T10:22:00;11.50;99.90
2327;DHT22;1174;51.588;7.328;2023-01-04T10:24:40;11.60;99.90
2327;DHT22;1174;51.588;7.328;2023-01-04T10:27:18;11.60;99.90
2327;DHT22;1174;51.588;7.328;2023-01-04T10:29:56;11.70;99.90
2327;DHT22;1174;51.588;7.328;2023-01-04T10:32:32;11.70;99.90
2327;DHT22;1174;51.588;7.328;2023-01-04T10:35:15;11.80;99.90
2327;DHT22;1174;51.588;7.328;2023-01-04T10:37:44;11.80;99.90
2327;DHT22;1174;51.588;7.328;2023-01-04T10:40:15;11.70;99.90
2327;DHT22;1174;51.588;7.328;2023-01-04T10:42:48;11.60;99.90
2327;DHT22;1174;51.588;7.328;2023-01-04T10:45:19;11.50;99.90
2327;DHT22;1174;51.588;7.328;2023-01-04T10:47:55;11.50;99.90
2327;DHT22;1174;51.588;7.328;2023-01-04T10:50:28;11.50;99.90
2327;DHT22;1174;51.588;7.328;2023-01-04T10:53:02;11.50;99.90
2327;DHT22;1174;51.588;7.328;2023-01-04T10:55:35;11.40;99.90
2327;DHT22;1174;51.588;7.328;2023-01-04T10:58:08;11.40;99.90
2327;DHT22;1174;51.588;7.328;2023-01-04T11:00:40;11.30;99.90
2327;DHT22;1174;51.588;7.328;2023-01-04T11:03:15;11.40;99.90
2327;DHT22;1174;51.588;7.328;2023-01-04T11:05:48;11.40;99.90
2327;DHT22;1174;51.588;7.328;2023-01-04T11:08:18;11.40;99.90
2327;DHT22;1174;51.588;7.328;2023-01-04T11:10:50;11.40;99.90
2327;DHT22;1174;51.588;7.328;2023-01-04T11:13:19;11.50;99.90
2327;DHT22;1174;51.588;7.328;2023-01-04T11:15:46;11.50;99.90
2327;DHT22;1174;51.588;7.328;2023-01-04T11:18:14;11.50;99.90
2327;DHT22;1174;51.588;7.328;2023-01-04T11:20:42;11.50;99.90
2327;DHT22;1174;51.588;7.328;2023-01-04T11:23:12;11.50;99.90
2327;DHT22;1174;51.588;7.328;2023-01-04T11:25:45;11.60;99.90
2327;DHT22;1174;51.588;7.328;2023-01-04T11:28:17;11.60;99.90
2327;DHT22;1174;51.588;7.328;2023-01-04T11:30:53;11.60;99.90
2327;DHT22;1174;51.588;7.328;2023-01-04T11:33:22;11.60;99.90
2327;DHT22;1174;51.588;7.328;2023-01-04T11:35:50;11.60;99.90
2327;DHT22;1174;51.588;7.328;2023-01-04T11:38:21;11.70;99.90
2327;DHT22;1174;51.588;7.328;2023-01-04T11:40:57;11.70;99.90
2327;DHT22;1174;51.588;7.328;2023-01-04T11:43:26;11.70;99.90
2327;DHT22;1174;51.588;7.328;2023-01-04T11:45:56;11.70;99.90
2327;DHT22;1174;51.588;7.328;2023-01-04T11:48:31;11.60;99.90
2327;DHT22;1174;51.588;7.328;2023-01-04T11:50:59;11.70;99.90
2327;DHT22;1174;51.588;7.328;2023-01-04T11:53:33;11.60;99.90
2327;DHT22;1174;51.588;7.328;2023-01-04T11:56:18;11.60;99.90
2327;DHT22;1174;51.588;7.328;2023-01-04T11:59:01;11.60;99.90
2327;DHT22;1174;51.588;7.328;2023-01-04T12:01:31;11.60;99.90
2327;DHT22;1174;51.588;7.328;2023-01-04T12:04:00;11.50;99.90
2327;DHT22;1174;51.588;7.328;2023-01-04T12:06:35;11.50;99.90
2327;DHT22;1174;51.588;7.328;2023-01-04T12:09:04;11.50;99.90
2327;DHT22;1174;51.588;7.328;2023-01-04T12:11:34;11.60;99.90
2327;DHT22;1174;51.588;7.328;2023-01-04T12:14:08;11.50;99.90
2327;DHT22;1174;51.588;7.328;2023-01-04T12:16:44;11.50;99.90
2327;DHT22;1174;51.588;7.328;2023-01-04T12:19:14;11.60;99.90
2327;DHT22;1174;51.588;7.328;2023-01-04T12:21:44;11.50;99.90
2327;DHT22;1174;51.588;7.328;2023-01-04T12:24:20;11.50;99.90
2327;DHT22;1174;51.588;7.328;2023-01-04T12:26:48;11.50;99.90
2327;DHT22;1174;51.588;7.328;2023-01-04T12:29:40;11.50;99.90
2327;DHT22;1174;51.588;7.328;2023-01-04T12:32:42;11.60;99.90
2327;DHT22;1174;51.588;7.328;2023-01-04T12:38:55;11.50;99.90
2327;DHT22;1174;51.588;7.328;2023-01-04T12:47:37;11.50;99.90
2327;DHT22;1174;51.588;7.328;2023-01-04T12:50:23;11.50;99.90
2327;DHT22;1174;51.588;7.328;2023-01-04T12:52:53;11.50;99.90
2327;DHT22;1174;51.588;7.328;2023-01-04T12:55:52;11.50;99.90
2327;DHT22;1174;51.588;7.328;2023-01-04T12:59:04;11.60;99.90
2327;DHT22;1174;51.588;7.328;2023-01-04T13:01:31;11.60;99.90
2327;DHT22;1174;51.588;7.328;2023-01-04T13:06:44;11.60;99.90
2327;DHT22;1174;51.588;7.328;2023-01-04T13:09:16;11.60;99.90
2327;DHT22;1174;51.588;7.328;2023-01-04T13:11:57;11.60;99.90
2327;DHT22;1174;51.588;7.328;2023-01-04T13:14:34;11.60;99.90
2327;DHT22;1174;51.588;7.328;2023-01-04T13:17:16;11.70;99.90
2327;DHT22;1174;51.588;7.328;2023-01-04T13:19:44;11.80;99.90
2327;DHT22;1174;51.588;7.328;2023-01-04T13:22:17;11.80;99.90
2327;DHT22;1174;51.588;7.328;2023-01-04T13:24:46;11.80;99.90
2327;DHT22;1174;51.588;7.328;2023-01-04T13:27:16;11.80;99.90
2327;DHT22;1174;51.588;7.328;2023-01-04T13:29:48;11.90;99.90
2327;DHT22;1174;51.588;7.328;2023-01-04T13:32:25;11.90;99.90
2327;DHT22;1174;51.588;7.328;2023-01-04T13:34:54;11.90;99.90
2327;DHT22;1174;51.588;7.328;2023-01-04T13:37:29;11.90;99.90
2327;DHT22;1174;51.588;7.328;2023-01-04T13:40:20;12.00;99.90
2327;DHT22;1174;51.588;7.328;2023-01-04T13:42:53;12.00;99.90
2327;DHT22;1174;51.588;7.328;2023-01-04T13:48:25;11.90;99.90
2327;DHT22;1174;51.588;7.328;2023-01-04T13:51:01;11.80;99.90
2327;DHT22;1174;51.588;7.328;2023-01-04T13:53:29;11.90;99.90
2327;DHT22;1174;51.588;7.328;2023-01-04T13:55:58;11.90;99.90
2327;DHT22;1174;51.588;7.328;2023-01-04T13:58:28;12.00;99.90
2327;DHT22;1174;51.588;7.328;2023-01-04T14:00:59;12.00;99.90
2327;DHT22;1174;51.588;7.328;2023-01-04T14:03:35;11.90;99.90
2327;DHT22;1174;51.588;7.328;2023-01-04T14:06:21;11.90;99.90
2327;DHT22;1174;51.588;7.328;2023-01-04T14:08:57;11.90;99.90
2327;DHT22;1174;51.588;7.328;2023-01-04T14:11:27;11.90;99.90
2327;DHT22;1174;51.588;7.328;2023-01-04T14:14:28;12.00;99.90
2327;DHT22;1174;51.588;7.328;2023-01-04T14:17:31;12.10;99.90
2327;DHT22;1174;51.588;7.328;2023-01-04T14:20:00;12.00;99.90
2327;DHT22;1174;51.588;7.328;2023-01-04T14:22:39;12.10;99.90
2327;DHT22;1174;51.588;7.328;2023-01-04T14:25:29;12.10;99.90
2327;DHT22;1174;51.588;7.328;2023-01-04T14:31:24;12.10;99.90
2327;DHT22;1174;51.588;7.328;2023-01-04T14:33:54;12.10;99.90
2327;DHT22;1174;51.588;7.328;2023-01-04T14:36:24;12.20;99.90
2327;DHT22;1174;51.588;7.328;2023-01-04T14:39:08;12.20;99.90
2327;DHT22;1174;51.588;7.328;2023-01-04T14:41:37;12.20;99.90
2327;DHT22;1174;51.588;7.328;2023-01-04T14:44:09;12.20;99.90
2327;DHT22;1174;51.588;7.328;2023-01-04T14:46:37;12.30;99.90
2327;DHT22;1174;51.588;7.328;2023-01-04T14:49:07;12.20;99.90
2327;DHT22;1174;51.588;7.328;2023-01-04T14:51:36;12.20;99.90
2327;DHT22;1174;51.588;7.328;2023-01-04T14:54:04;12.20;99.90
2327;DHT22;1174;51.588;7.328;2023-01-04T14:56:32;12.20;99.90
2327;DHT22;1174;51.588;7.328;2023-01-04T14:58:59;12.20;99.90
2327;DHT22;1174;51.588;7.328;2023-01-04T15:01:26;12.20;99.90
2327;DHT22;1174;51.588;7.328;2023-01-04T15:03:53;12.20;99.90
2327;DHT22;1174;51.588;7.328;2023-01-04T15:06:22;12.20;99.90
2327;DHT22;1174;51.588;7.328;2023-01-04T15:08:48;12.20;99.90
2327;DHT22;1174;51.588;7.328;2023-01-04T15:11:17;12.20;99.90
2327;DHT22;1174;51.588;7.328;2023-01-04T15:13:45;12.20;99.90
2327;DHT22;1174;51.588;7.328;2023-01-04T15:16:13;12.10;99.90
2327;DHT22;1174;51.588;7.328;2023-01-04T15:18:42;12.10;99.90
2327;DHT22;1174;51.588;7.328;2023-01-04T15:21:11;12.10;99.90
2327;DHT22;1174;51.588;7.328;2023-01-04T15:23:41;12.10;99.90
2327;DHT22;1174;51.588;7.328;2023-01-04T15:26:10;12.10;99.90
2327;DHT22;1174;51.588;7.328;2023-01-04T15:28:37;12.10;99.90
2327;DHT22;1174;51.588;7.328;2023-01-04T15:31:08;12.10;99.90
2327;DHT22;1174;51.588;7.328;2023-01-04T15:33:36;12.00;99.90
2327;DHT22;1174;51.588;7.328;2023-01-04T15:36:04;12.00;99.90
2327;DHT22;1174;51.588;7.328;2023-01-04T15:38:32;12.00;99.90
2327;DHT22;1174;51.588;7.328;2023-01-04T15:41:02;12.10;99.90
2327;DHT22;1174;51.588;7.328;2023-01-04T15:43:32;12.10;99.90
2327;DHT22;1174;51.588;7.328;2023-01-04T15:46:04;12.10;99.90
2327;DHT22;1174;51.588;7.328;2023-01-04T15:48:32;12.10;99.90
2327;DHT22;1174;51.588;7.328;2023-01-04T15:51:03;12.10;99.90
2327;DHT22;1174;51.588;7.328;2023-01-04T15:53:32;12.10;99.90
2327;DHT22;1174;51.588;7.328;2023-01-04T15:56:11;12.10;99.90
2327;DHT22;1174;51.588;7.328;2023-01-04T15:58:39;12.20;99.90
2327;DHT22;1174;51.588;7.328;2023-01-04T16:01:08;12.20;99.90
2327;DHT22;1174;51.588;7.328;2023-01-04T16:03:38;12.20;99.90
2327;DHT22;1174;51.588;7.328;2023-01-04T16:06:07;12.20;99.90
2327;DHT22;1174;51.588;7.328;2023-01-04T16:08:35;12.30;99.90
2327;DHT22;1174;51.588;7.328;2023-01-04T16:11:11;12.20;99.90
2327;DHT22;1174;51.588;7.328;2023-01-04T16:13:39;12.20;99.90
2327;DHT22;1174;51.588;7.328;2023-01-04T16:16:06;12.20;99.90
2327;DHT22;1174;51.588;7.328;2023-01-04T16:18:34;12.20;99.90
2327;DHT22;1174;51.588;7.328;2023-01-04T16:21:04;12.20;99.90
2327;DHT22;1174;51.588;7.328;2023-01-04T16:23:31;12.20;99.90
2327;DHT22;1174;51.588;7.328;2023-01-04T16:26:06;12.30;99.90
2327;DHT22;1174;51.588;7.328;2023-01-04T16:28:35;12.40;99.90
2327;DHT22;1174;51.588;7.328;2023-01-04T16:31:04;12.40;99.90
2327;DHT22;1174;51.588;7.328;2023-01-04T16:33:31;12.40;99.90
2327;DHT22;1174;51.588;7.328;2023-01-04T16:36:02;12.50;99.90
2327;DHT22;1174;51.588;7.328;2023-01-04T16:38:34;12.50;99.90
2327;DHT22;1174;51.588;7.328;2023-01-04T16:41:03;12.50;99.90
2327;DHT22;1174;51.588;7.328;2023-01-04T16:43:30;12.50;99.90
2327;DHT22;1174;51.588;7.328;2023-01-04T16:46:19;12.60;99.90
2327;DHT22;1174;51.588;7.328;2023-01-04T16:48:47;12.60;99.90
2327;DHT22;1174;51.588;7.328;2023-01-04T16:51:15;12.70;99.90
2327;DHT22;1174;51.588;7.328;2023-01-04T16:53:43;12.70;99.90
2327;DHT22;1174;51.588;7.328;2023-01-04T16:56:14;12.70;99.90
2327;DHT22;1174;51.588;7.328;2023-01-04T16:58:43;12.70;99.90
2327;DHT22;1174;51.588;7.328;2023-01-04T17:01:15;12.70;99.90